createdAt,value
2022-10-19T00:01:53.192Z,97927.23
2022-10-19T00:04:23.315Z,97929.55
2022-10-19T00:06:53.220Z,97934.06
2022-10-19T00:09:23.019Z,97933.27
2022-10-19T00:11:53.124Z,97933.89
2022-10-19T00:14:25.941Z,97931.55
2022-10-19T00:16:58.844Z,97927.30
2022-10-19T00:19:29.474Z,97923.77
2022-10-19T00:21:58.242Z,97917.60
2022-10-19T00:24:29.530Z,97914.58
2022-10-19T00:26:59.557Z,97916.16
2022-10-19T00:29:28.937Z,97916.42
2022-10-19T00:31:58.075Z,97916.28
2022-10-19T00:34:28.951Z,97911.94
2022-10-19T00:36:59.894Z,97911.64
2022-10-19T00:39:28.948Z,97915.40
2022-10-19T00:41:59.207Z,97918.34
2022-10-19T00:44:30.635Z,97923.35
2022-10-19T00:47:06.902Z,97914.27
2022-10-19T00:49:46.343Z,97911.77
2022-10-19T00:52:21.507Z,97909.04
2022-10-19T00:54:52.974Z,97905.66
2022-10-19T00:57:24.063Z,97902.56
2022-10-19T00:59:56.097Z,97904.70
2022-10-19T01:02:27.451Z,97898.16
2022-10-19T01:04:57.541Z,97895.23
2022-10-19T01:07:28.845Z,97896.05
2022-10-19T01:10:01.222Z,97897.07
2022-10-19T01:12:50.234Z,97895.25
2022-10-19T01:15:39.691Z,97892.92
2022-10-19T01:18:40.965Z,97888.27
2022-10-19T01:21:23.568Z,97883.50
2022-10-19T01:24:39.822Z,97878.94
2022-10-19T01:27:17.205Z,97874.78
2022-10-19T01:30:06.954Z,97871.80
2022-10-19T01:32:56.696Z,97872.87
2022-10-19T01:36:01.001Z,97875.00
2022-10-19T01:38:42.593Z,97875.24
2022-10-19T01:41:30.086Z,97868.71
2022-10-19T01:44:03.846Z,97864.38
2022-10-19T01:46:47.378Z,97862.81
2022-10-19T01:49:48.944Z,97862.27
2022-10-19T01:52:22.684Z,97865.20
2022-10-19T01:54:57.429Z,97863.36
2022-10-19T01:57:37.927Z,97861.39
2022-10-19T02:00:11.342Z,97859.05
2022-10-19T02:02:51.668Z,97855.81
2022-10-19T02:05:27.371Z,97858.05
2022-10-19T02:08:01.709Z,97855.75
2022-10-19T02:10:34.813Z,97853.89
2022-10-19T02:13:06.686Z,97853.20
2022-10-19T02:15:40.380Z,97854.52
2022-10-19T02:18:13.906Z,97852.91
2022-10-19T02:20:43.850Z,97847.73
2022-10-19T02:23:15.618Z,97847.07
2022-10-19T02:25:44.724Z,97849.73
2022-10-19T02:28:16.153Z,97847.94
2022-10-19T02:30:45.852Z,97851.27
2022-10-19T02:33:14.892Z,97850.87
2022-10-19T02:35:45.574Z,97846.11
2022-10-19T02:38:19.400Z,97848.67
2022-10-19T02:41:13.142Z,97841.02
2022-10-19T02:43:46.669Z,97843.20
2022-10-19T02:46:28.666Z,97845.45
2022-10-19T02:49:00.251Z,97848.39
2022-10-19T02:51:33.372Z,97847.19
2022-10-19T02:54:05.192Z,97850.27
2022-10-19T02:56:35.731Z,97845.42
2022-10-19T02:59:05.583Z,97846.34
2022-10-19T03:01:34.847Z,97843.01
2022-10-19T03:04:05.678Z,97848.42
2022-10-19T03:06:35.209Z,97849.05
2022-10-19T03:09:04.776Z,97848.16
2022-10-19T03:11:34.135Z,97847.42
2022-10-19T03:14:03.290Z,97851.53
2022-10-19T03:16:32.603Z,97844.60
2022-10-19T03:19:01.568Z,97844.89
2022-10-19T03:21:30.873Z,97840.05
2022-10-19T03:24:01.698Z,97838.14
2022-10-19T03:26:31.576Z,97839.25
2022-10-19T03:29:01.362Z,97841.74
2022-10-19T03:31:30.506Z,97852.13
2022-10-19T03:34:01.245Z,97855.13
2022-10-19T03:36:32.014Z,97859.50
2022-10-19T03:39:03.987Z,97860.23
2022-10-19T03:41:36.071Z,97856.02
2022-10-19T03:44:07.908Z,97854.95
2022-10-19T03:46:38.301Z,97852.36
2022-10-19T03:49:07.769Z,97851.06
2022-10-19T03:51:36.612Z,97845.70
2022-10-19T03:54:07.857Z,97847.58
2022-10-19T03:56:37.115Z,97843.35
2022-10-19T03:59:08.120Z,97839.78
2022-10-19T04:01:40.263Z,97843.57
2022-10-19T04:04:16.267Z,97848.05
2022-10-19T04:06:47.484Z,97846.24
2022-10-19T04:09:19.382Z,97844.66
2022-10-19T04:11:49.434Z,97848.38
2022-10-19T04:14:31.811Z,97844.50
2022-10-19T04:17:03.197Z,97839.48
2022-10-19T04:19:32.446Z,97833.77
2022-10-19T04:22:01.256Z,97829.63
2022-10-19T04:24:30.144Z,97834.74
2022-10-19T04:26:59.088Z,97832.98
2022-10-19T04:29:29.818Z,97830.46
2022-10-19T04:32:00.008Z,97828.86
2022-10-19T04:34:28.587Z,97825.77
2022-10-19T04:36:59.722Z,97823.19
2022-10-19T04:39:28.403Z,97820.77
2022-10-19T04:41:57.344Z,97824.54
2022-10-19T04:44:26.639Z,97821.80
2022-10-19T04:46:55.715Z,97823.78
2022-10-19T04:49:25.259Z,97822.55
2022-10-19T04:51:54.760Z,97823.30
2022-10-19T04:54:23.572Z,97819.56
2022-10-19T04:56:54.083Z,97819.79
2022-10-19T04:59:22.725Z,97813.03
2022-10-19T05:01:52.935Z,97814.80
2022-10-19T05:04:21.726Z,97814.52
2022-10-19T05:06:50.873Z,97810.16
2022-10-19T05:09:19.560Z,97805.96
2022-10-19T05:11:51.006Z,97806.89
2022-10-19T05:14:20.395Z,97804.73
2022-10-19T05:16:49.470Z,97805.99
2022-10-19T05:19:18.658Z,97807.81
2022-10-19T05:21:47.239Z,97806.61
2022-10-19T05:24:16.640Z,97805.78
2022-10-19T05:26:45.838Z,97800.13
2022-10-19T05:29:14.489Z,97807.83
2022-10-19T05:31:43.485Z,97806.29
2022-10-19T05:34:12.065Z,97814.83
2022-10-19T05:36:41.150Z,97813.52
2022-10-19T05:39:14.296Z,97813.52
2022-10-19T05:41:47.389Z,97811.63
2022-10-19T05:44:21.952Z,97815.15
2022-10-19T05:46:52.050Z,97811.84
2022-10-19T05:49:22.756Z,97811.94
2022-10-19T05:51:51.598Z,97813.09
2022-10-19T05:54:22.690Z,97819.65
2022-10-19T05:56:53.727Z,97822.33
2022-10-19T05:59:22.400Z,97816.67
2022-10-19T06:01:50.901Z,97812.45
2022-10-19T06:04:19.649Z,97818.91
2022-10-19T06:06:48.434Z,97811.50
2022-10-19T06:09:17.034Z,97810.23
2022-10-19T06:11:45.672Z,97814.23
2022-10-19T06:14:16.418Z,97809.83
2022-10-19T06:16:46.396Z,97810.30
2022-10-19T06:19:15.369Z,97813.72
2022-10-19T06:21:47.298Z,97810.05
2022-10-19T06:24:19.723Z,97811.24
2022-10-19T06:26:51.109Z,97812.92
2022-10-19T06:29:19.832Z,97815.02
2022-10-19T06:31:48.725Z,97816.84
2022-10-19T06:34:17.595Z,97823.71
2022-10-19T06:36:46.509Z,97826.39
2022-10-19T06:39:15.297Z,97825.00
2022-10-19T06:41:44.194Z,97818.52
2022-10-19T06:44:30.961Z,97823.25
2022-10-19T06:46:59.982Z,97825.84
2022-10-19T06:49:29.307Z,97819.70
2022-10-19T06:51:58.182Z,97819.58
2022-10-19T06:54:26.830Z,97821.05
2022-10-19T06:56:55.448Z,97818.64
2022-10-19T06:59:23.933Z,97815.73
2022-10-19T07:01:53.116Z,97819.48
2022-10-19T07:04:21.628Z,97815.98
2022-10-19T07:06:51.520Z,97818.61
2022-10-19T07:09:20.506Z,97817.45
2022-10-19T07:11:49.647Z,97815.86
2022-10-19T07:14:18.509Z,97813.98
2022-10-19T07:16:47.080Z,97814.88
2022-10-19T07:19:15.766Z,97817.25
2022-10-19T07:21:45.368Z,97821.64
2022-10-19T07:24:14.570Z,97818.20
2022-10-19T07:26:43.261Z,97813.08
2022-10-19T07:29:12.241Z,97810.11
2022-10-19T07:31:41.640Z,97808.48
2022-10-19T07:34:14.808Z,97803.79
2022-10-19T07:36:48.332Z,97803.45
2022-10-19T07:39:17.938Z,97807.17
2022-10-19T07:41:47.137Z,97808.18
2022-10-19T07:44:16.134Z,97797.36
2022-10-19T07:46:44.922Z,97794.67
2022-10-19T07:49:17.045Z,97793.64
2022-10-19T07:51:47.156Z,97783.94
2022-10-19T07:54:15.791Z,97790.39
2022-10-19T07:56:44.693Z,97789.41
2022-10-19T07:59:15.367Z,97784.27
2022-10-19T08:01:45.386Z,97784.52
2022-10-19T08:04:49.010Z,97790.63
2022-10-19T08:07:05.554Z,97793.23
2022-10-19T08:09:52.090Z,97791.39
2022-10-19T08:12:28.812Z,97793.09
2022-10-19T08:14:57.498Z,97799.63
2022-10-19T08:17:26.296Z,97798.04
2022-10-19T08:19:55.284Z,97794.48
2022-10-19T08:22:23.975Z,97788.87
2022-10-19T08:24:52.546Z,97787.17
2022-10-19T08:27:20.922Z,97776.83
2022-10-19T08:29:52.175Z,97773.57
2022-10-19T08:32:21.277Z,97778.52
2022-10-19T08:34:49.955Z,97772.27
2022-10-19T08:37:26.369Z,97771.97
2022-10-19T08:40:18.952Z,97769.33
2022-10-19T08:43:06.699Z,97764.48
2022-10-19T08:46:01.902Z,97759.57
2022-10-19T08:48:37.561Z,97754.11
2022-10-19T08:51:09.480Z,97753.65
2022-10-19T08:53:51.649Z,97754.71
2022-10-19T08:56:52.114Z,97747.54
2022-10-19T08:59:45.209Z,97739.37
2022-10-19T09:02:39.806Z,97734.14
2022-10-19T09:05:24.360Z,97732.43
2022-10-19T09:07:55.095Z,97732.23
2022-10-19T09:10:36.011Z,97735.61
2022-10-19T09:13:41.754Z,97741.73
2022-10-19T09:16:28.421Z,97741.07
2022-10-19T09:18:57.111Z,97739.73
2022-10-19T09:21:47.047Z,97740.61
2022-10-19T09:24:30.102Z,97746.52
2022-10-19T09:27:01.159Z,97743.73
2022-10-19T09:29:45.004Z,97743.13
2022-10-19T09:32:19.019Z,97744.16
2022-10-19T09:34:57.289Z,97745.64
2022-10-19T09:37:26.985Z,97743.14
2022-10-19T09:39:56.736Z,97740.02
2022-10-19T09:42:35.545Z,97739.06
2022-10-19T09:45:20.425Z,97731.41
2022-10-19T09:47:51.058Z,97730.83
2022-10-19T09:50:22.795Z,97726.05
2022-10-19T09:53:05.621Z,97722.81
2022-10-19T09:55:39.316Z,97722.17
2022-10-19T09:58:16.105Z,97724.67
2022-10-19T10:00:47.926Z,97725.02
2022-10-19T10:03:39.792Z,97722.64
2022-10-19T10:06:18.316Z,97717.98
2022-10-19T10:08:50.139Z,97719.22
2022-10-19T10:11:29.408Z,97715.48
2022-10-19T10:14:05.025Z,97717.23
2022-10-19T10:16:38.352Z,97713.94
2022-10-19T10:19:12.265Z,97711.81
2022-10-19T10:21:55.952Z,97710.99
2022-10-19T10:24:27.718Z,97707.12
2022-10-19T10:27:02.225Z,97711.02
2022-10-19T10:29:35.975Z,97708.84
2022-10-19T10:32:19.386Z,97704.77
2022-10-19T10:35:17.075Z,97704.55
2022-10-19T10:37:47.530Z,97704.05
2022-10-19T10:40:27.909Z,97704.83
2022-10-19T10:43:07.499Z,97700.36
2022-10-19T10:45:44.376Z,97701.95
2022-10-19T10:48:39.658Z,97699.57
2022-10-19T10:51:41.656Z,97697.73
2022-10-19T10:54:30.717Z,97696.87
2022-10-19T10:57:19.304Z,97697.06
2022-10-19T11:00:12.533Z,97694.30
2022-10-19T11:03:08.258Z,97689.90
2022-10-19T11:05:42.838Z,97684.90
2022-10-19T11:08:36.508Z,97676.62
2022-10-19T11:11:11.376Z,97683.80
2022-10-19T11:13:45.490Z,97679.41
2022-10-19T11:16:19.886Z,97674.64
2022-10-19T11:18:54.117Z,97676.86
2022-10-19T11:21:34.688Z,97670.71
2022-10-19T11:24:35.627Z,97670.77
2022-10-19T11:27:18.861Z,97665.81
2022-10-19T11:29:56.246Z,97665.48
2022-10-19T11:33:03.536Z,97662.27
2022-10-19T11:35:40.620Z,97658.19
2022-10-19T11:38:33.674Z,97661.70
2022-10-19T11:41:34.726Z,97664.15
2022-10-19T11:44:30.745Z,97662.89
2022-10-19T11:47:29.663Z,97661.73
2022-10-19T11:50:04.396Z,97652.38
2022-10-19T11:53:12.780Z,97653.55
2022-10-19T11:55:47.092Z,97646.73
2022-10-19T11:58:32.334Z,97642.11
2022-10-19T12:01:17.395Z,97637.95
2022-10-19T12:04:11.525Z,97631.61
2022-10-19T12:06:50.455Z,97627.96
2022-10-19T12:09:50.269Z,97618.40
2022-10-19T12:12:31.234Z,97615.48
2022-10-19T12:15:21.021Z,97609.48
2022-10-19T12:17:53.113Z,97607.85
2022-10-19T12:20:43.688Z,97604.52
2022-10-19T12:23:28.861Z,97602.41
2022-10-19T12:26:00.541Z,97601.41
2022-10-19T12:28:32.792Z,97598.61
2022-10-19T12:31:03.312Z,97596.98
2022-10-19T12:33:38.318Z,97593.60
2022-10-19T12:36:34.622Z,97600.77
2022-10-19T12:39:18.309Z,97595.61
2022-10-19T12:41:52.835Z,97594.63
2022-10-19T12:44:27.356Z,97591.22
2022-10-19T12:47:20.513Z,97592.02
2022-10-19T12:49:51.142Z,97582.95
2022-10-19T12:52:41.715Z,97583.40
2022-10-19T12:55:27.023Z,97580.41
2022-10-19T12:58:06.745Z,97577.00
2022-10-19T13:00:38.114Z,97575.15
2022-10-19T13:03:08.957Z,97574.20
2022-10-19T13:05:37.712Z,97577.13
2022-10-19T13:08:10.697Z,97579.43
2022-10-19T13:11:02.249Z,97573.34
2022-10-19T13:13:58.173Z,97577.52
2022-10-19T13:16:39.555Z,97577.64
2022-10-19T13:19:14.080Z,97580.44
2022-10-19T13:22:02.425Z,97582.29
2022-10-19T13:24:34.862Z,97579.85
2022-10-19T13:27:03.487Z,97577.45
2022-10-19T13:29:40.867Z,97573.44
2022-10-19T13:32:38.103Z,97569.89
2022-10-19T13:35:36.816Z,97569.17
2022-10-19T13:38:17.680Z,97562.65
2022-10-19T13:40:49.072Z,97567.58
2022-10-19T13:43:38.915Z,97566.05
2022-10-19T13:46:30.333Z,97564.35
2022-10-19T13:49:01.886Z,97568.88
2022-10-19T13:51:52.178Z,97567.52
2022-10-19T13:54:39.156Z,97563.21
2022-10-19T13:57:26.416Z,97562.22
2022-10-19T14:00:21.853Z,97554.39
2022-10-19T14:02:53.486Z,97560.95
2022-10-19T14:05:31.324Z,97564.48
2022-10-19T14:08:17.826Z,97564.58
2022-10-19T14:11:01.020Z,97564.09
2022-10-19T14:13:30.821Z,97562.98
2022-10-19T14:16:03.203Z,97558.65
2022-10-19T14:18:34.790Z,97558.85
2022-10-19T14:21:06.559Z,97563.01
2022-10-19T14:23:38.320Z,97566.73
2022-10-19T14:26:15.144Z,97571.60
2022-10-19T14:28:44.146Z,97570.80
2022-10-19T14:31:20.800Z,97569.06
2022-10-19T14:34:01.467Z,97568.10
2022-10-19T14:36:44.489Z,97566.41
2022-10-19T14:39:30.787Z,97565.45
2022-10-19T14:42:07.152Z,97560.06
2022-10-19T14:44:40.650Z,97557.04
2022-10-19T14:47:27.464Z,97555.33
2022-10-19T14:49:56.148Z,97559.58
2022-10-19T14:52:34.055Z,97560.09
2022-10-19T14:55:12.758Z,97562.38
2022-10-19T14:57:47.913Z,97557.25
2022-10-19T15:00:22.471Z,97558.23
2022-10-19T15:03:02.068Z,97558.30
2022-10-19T15:05:35.160Z,97561.95
2022-10-19T15:08:19.222Z,97560.76
2022-10-19T15:10:49.429Z,97556.27
2022-10-19T15:13:29.481Z,97560.75
2022-10-19T15:15:58.164Z,97561.34
2022-10-19T15:18:48.947Z,97559.02
2022-10-19T15:21:21.872Z,97555.91
2022-10-19T15:23:52.660Z,97560.06
2022-10-19T15:26:27.004Z,97566.90
2022-10-19T15:29:08.394Z,97558.38
2022-10-19T15:31:36.969Z,97555.97
2022-10-19T15:34:05.669Z,97557.67
2022-10-19T15:36:35.370Z,97564.10
2022-10-19T15:39:18.438Z,97565.00
2022-10-19T15:41:54.547Z,97566.52
2022-10-19T15:44:49.649Z,97569.89
2022-10-19T15:47:21.987Z,97566.78
2022-10-19T15:50:01.756Z,97560.80
2022-10-19T15:52:34.347Z,97561.62
2022-10-19T15:55:03.644Z,97561.98
2022-10-19T15:57:36.898Z,97564.29
2022-10-19T16:00:17.136Z,97563.77
2022-10-19T16:02:45.476Z,97557.53
2022-10-19T16:05:13.953Z,97561.54
2022-10-19T16:07:42.642Z,97558.89
2022-10-19T16:10:21.055Z,97557.23
2022-10-19T16:12:49.960Z,97559.85
2022-10-19T16:15:24.466Z,97561.13
2022-10-19T16:17:59.259Z,97566.73
2022-10-19T16:20:30.033Z,97565.89
2022-10-19T16:22:59.019Z,97567.89
2022-10-19T16:25:27.507Z,97573.83
2022-10-19T16:27:56.087Z,97584.45
2022-10-19T16:30:24.768Z,97586.59
2022-10-19T16:32:53.258Z,97587.77
2022-10-19T16:35:21.765Z,97590.63
2022-10-19T16:37:50.210Z,97593.02
2022-10-19T16:40:18.897Z,97597.36
2022-10-19T16:42:47.581Z,97599.05
2022-10-19T16:45:16.267Z,97601.93
2022-10-19T16:47:45.673Z,97602.91
2022-10-19T16:50:14.048Z,97609.87
2022-10-19T16:52:42.426Z,97609.28
2022-10-19T16:55:11.545Z,97610.61
2022-10-19T16:57:40.310Z,97613.12
2022-10-19T17:00:10.330Z,97611.78
2022-10-19T17:02:41.844Z,97610.71
2022-10-19T17:05:12.918Z,97613.33
2022-10-19T17:07:41.402Z,97615.03
2022-10-19T17:10:10.378Z,97619.21
2022-10-19T17:12:43.235Z,97615.73
2022-10-19T17:15:41.065Z,97619.59
2022-10-19T17:18:00.103Z,97621.73
2022-10-19T17:20:28.479Z,97628.29
2022-10-19T17:22:56.961Z,97628.17
2022-10-19T17:25:25.752Z,97627.42
2022-10-19T17:27:54.228Z,97630.56
2022-10-19T17:30:22.815Z,97632.38
2022-10-19T17:32:51.196Z,97630.64
2022-10-19T17:35:19.504Z,97641.23
2022-10-19T17:37:47.954Z,97638.84
2022-10-19T17:40:16.946Z,97644.11
2022-10-19T17:42:45.430Z,97643.08
2022-10-19T17:45:13.917Z,97641.55
2022-10-19T17:47:42.281Z,97640.21
2022-10-19T17:50:10.863Z,97637.90
2022-10-19T17:52:39.266Z,97635.05
2022-10-19T17:55:13.357Z,97639.95
2022-10-19T17:57:42.244Z,97644.90
2022-10-19T18:00:11.759Z,97643.09
2022-10-19T18:02:47.185Z,97641.59
2022-10-19T18:05:15.830Z,97641.14
2022-10-19T18:07:44.671Z,97641.50
2022-10-19T18:10:14.890Z,97642.48
2022-10-19T18:12:43.267Z,97647.21
2022-10-19T18:15:11.646Z,97651.19
2022-10-19T18:17:40.227Z,97648.14
2022-10-19T18:20:09.732Z,97648.88
2022-10-19T18:22:38.225Z,97649.42
2022-10-19T18:25:09.457Z,97649.33
2022-10-19T18:27:38.183Z,97654.55
2022-10-19T18:30:07.141Z,97657.55
2022-10-19T18:32:36.549Z,97656.83
2022-10-19T18:35:05.646Z,97658.05
2022-10-19T18:37:34.016Z,97654.66
2022-10-19T18:40:02.496Z,97650.81
2022-10-19T18:42:31.312Z,97652.25
2022-10-19T18:44:59.774Z,97652.44
2022-10-19T18:47:30.226Z,97645.59
2022-10-19T18:49:58.788Z,97642.74
2022-10-19T18:52:27.256Z,97642.59
2022-10-19T18:54:55.633Z,97643.73
2022-10-19T18:57:27.181Z,97648.22
2022-10-19T18:59:58.737Z,97654.06
2022-10-19T19:02:34.910Z,97657.02
2022-10-19T19:05:11.802Z,97661.16
2022-10-19T19:07:40.330Z,97655.09
2022-10-19T19:10:09.146Z,97659.70
2022-10-19T19:12:37.800Z,97663.58
2022-10-19T19:15:08.817Z,97663.68
2022-10-19T19:17:38.589Z,97672.91
2022-10-19T19:20:07.984Z,97670.55
2022-10-19T19:22:37.230Z,97674.69
2022-10-19T19:25:06.813Z,97680.68
2022-10-19T19:27:35.296Z,97684.61
2022-10-19T19:30:04.983Z,97685.89
2022-10-19T19:32:35.047Z,97686.05
2022-10-19T19:35:04.281Z,97691.41
2022-10-19T19:37:33.041Z,97691.39
2022-10-19T19:40:01.868Z,97690.55
2022-10-19T19:42:30.456Z,97689.60
2022-10-19T19:44:59.044Z,97697.16
2022-10-19T19:47:27.522Z,97701.31
2022-10-19T19:49:56.006Z,97699.69
2022-10-19T19:52:24.584Z,97702.16
2022-10-19T19:54:54.449Z,97703.14
2022-10-19T19:57:23.292Z,97704.42
2022-10-19T19:59:51.775Z,97707.63
2022-10-19T20:02:21.475Z,97711.50
2022-10-19T20:04:49.962Z,97711.90
2022-10-19T20:07:18.542Z,97706.79
2022-10-19T20:09:47.332Z,97700.80
2022-10-19T20:12:15.795Z,97708.92
2022-10-19T20:14:44.289Z,97712.75
2022-10-19T20:17:12.571Z,97718.21
2022-10-19T20:19:41.826Z,97720.97
2022-10-19T20:22:10.295Z,97716.86
2022-10-19T20:24:39.034Z,97718.30
2022-10-19T20:27:07.642Z,97721.89
2022-10-19T20:29:36.404Z,97722.72
2022-10-19T20:32:05.187Z,97715.02
2022-10-19T20:34:36.319Z,97713.66
2022-10-19T20:37:05.026Z,97711.16
2022-10-19T20:39:33.671Z,97717.53
2022-10-19T20:42:02.162Z,97716.40
2022-10-19T20:44:31.077Z,97714.18
2022-10-19T20:46:59.559Z,97711.42
2022-10-19T20:49:28.550Z,97710.07
2022-10-19T20:51:57.442Z,97717.27
2022-10-19T20:54:25.973Z,97722.20
2022-10-19T20:56:54.940Z,97717.06
2022-10-19T20:59:31.787Z,97718.11
2022-10-19T21:02:00.460Z,97717.46
2022-10-19T21:04:29.477Z,97714.36
2022-10-19T21:07:15.676Z,97713.61
2022-10-19T21:09:44.257Z,97717.80
2022-10-19T21:12:12.943Z,97712.21
2022-10-19T21:14:41.530Z,97709.08
2022-10-19T21:17:10.303Z,97709.79
2022-10-19T21:19:38.787Z,97715.23
2022-10-19T21:22:08.791Z,97715.50
2022-10-19T21:24:37.181Z,97714.63
2022-10-19T21:27:09.384Z,97709.80
2022-10-19T21:29:38.550Z,97707.59
2022-10-19T21:32:07.647Z,97709.90
2022-10-19T21:34:36.431Z,97716.98
2022-10-19T21:37:05.120Z,97717.66
2022-10-19T21:39:33.985Z,97718.73
2022-10-19T21:42:02.904Z,97717.08
2022-10-19T21:44:31.478Z,97719.45
2022-10-19T21:47:00.371Z,97722.39
2022-10-19T21:49:28.970Z,97723.01
2022-10-19T21:51:57.906Z,97721.89
2022-10-19T21:54:26.635Z,97717.94
2022-10-19T21:57:00.693Z,97711.11
2022-10-19T21:59:29.570Z,97712.16
2022-10-19T22:02:00.391Z,97713.38
2022-10-19T22:04:29.591Z,97720.41
2022-10-19T22:07:00.228Z,97725.97
2022-10-19T22:09:29.086Z,97725.88
2022-10-19T22:11:57.679Z,97728.08
2022-10-19T22:14:27.819Z,97728.02
2022-10-19T22:16:56.799Z,97722.28
2022-10-19T22:19:26.937Z,97724.23
2022-10-19T22:21:57.656Z,97725.21
2022-10-19T22:24:26.677Z,97722.95
2022-10-19T22:26:55.837Z,97720.42
2022-10-19T22:29:25.647Z,97725.45
2022-10-19T22:31:55.865Z,97728.11
2022-10-19T22:34:25.680Z,97736.02
2022-10-19T22:36:55.099Z,97741.65
2022-10-19T22:39:27.751Z,97745.39
2022-10-19T22:41:58.420Z,97752.58
2022-10-19T22:44:27.294Z,97753.12
2022-10-19T22:46:57.603Z,97749.92
2022-10-19T22:49:27.005Z,97760.64
2022-10-19T22:51:56.546Z,97764.34
2022-10-19T22:54:26.133Z,97772.16
2022-10-19T22:56:55.834Z,97771.34
2022-10-19T22:59:25.536Z,97775.13
2022-10-19T23:01:54.796Z,97770.38
2022-10-19T23:04:25.805Z,97774.33
2022-10-19T23:06:56.450Z,97773.41
2022-10-19T23:09:26.435Z,97778.28
2022-10-19T23:11:56.348Z,97773.14
2022-10-19T23:14:25.865Z,97770.19
2022-10-19T23:16:56.290Z,97768.88
2022-10-19T23:19:26.745Z,97766.01
2022-10-19T23:21:56.061Z,97769.91
2022-10-19T23:24:25.404Z,97768.20
2022-10-19T23:26:55.509Z,97767.59
2022-10-19T23:29:25.936Z,97774.88
2022-10-19T23:31:55.980Z,97779.60
2022-10-19T23:34:26.530Z,97777.13
2022-10-19T23:36:56.888Z,97784.31
2022-10-19T23:39:26.329Z,97785.00
2022-10-19T23:41:56.053Z,97790.17
2022-10-19T23:44:25.565Z,97793.91
2022-10-19T23:46:55.442Z,97796.55
2022-10-19T23:49:25.118Z,97799.48
2022-10-19T23:51:55.177Z,97802.79
2022-10-19T23:54:26.030Z,97803.80
2022-10-19T23:56:55.810Z,97801.33
2022-10-19T23:59:25.127Z,97801.50
